Flight Track Log - Related Links

Times and Time Zones

All times are in EST time to prevent confusion due to time zone crossing. See the CHQ5308 flight status page for this flight to view local times or setup timezone preferences in your user account.

Time Position Orientation Groundspeed Altitude Reporting Facility
EST Latitude Longitude Course Direction KTS MPH feet Rate Location/Type
Mon 08:23:17 AM 41.9142 -91.8014 44° Northeast 202 232 19,000  Level Chicago Center
Mon 08:24:18 AM 41.9617 -91.7542 36° Northeast 233 268 6,000 -5,122 Descending Chicago Center
Mon 08:25:20 AM 42.0042 -91.6808 52° Northeast 246 283 8,500 2,341 Climbing Chicago Center
Mon 08:26:00 AM 42.0721 -91.4372 45° Northeast  Level FlightAware Approximate
Mon 08:26:21 AM 42.0522 -91.6042 50° Northeast 264 304 10,800  Level Chicago Center
Mon 08:27:00 AM 42.1096 -91.3841 51° Northeast  Level FlightAware Approximate
Mon 08:27:23 AM 42.1033 -91.5208 50° Northeast 285 328 12,400  Level Chicago Center
Mon 08:28:00 AM 42.1689 -91.2925 44° Northeast  Level FlightAware Approximate
Mon 08:28:24 AM 42.1589 -91.4289 51° Northeast 311 358 14,100  Level Chicago Center
Mon 08:29:26 AM 42.2283 -91.3156 50° Northeast 326 375 16,100 1,707 Climbing Chicago Center
Mon 08:30:27 AM 42.2892 -91.2153 51° Northeast 342 394 17,600 1,268 Climbing Chicago Center
Mon 08:31:29 AM 42.3511 -91.1131 51° Northeast 351 404 18,700 683 Climbing Chicago Center
Mon 08:32:30 AM 42.4158 -91.0044 51° Northeast 364 419 19,000 146 Climbing Chicago Center
Mon 08:33:32 AM 42.4847 -90.8906 51° Northeast 386 444 19,000  Level Chicago Center
Mon 08:34:34 AM 42.5283 -90.7572 66° East 411 473 19,000  Level Chicago Center
Mon 08:35:35 AM 42.5250 -90.5708 91° East 415 478 19,000  Level Chicago Center
Mon 08:36:37 AM 42.5217 -90.4172 92° East 411 473 19,000  Level Chicago Center
Mon 08:37:38 AM 42.5219 -90.2683 90° East 401 461 19,000  Level Chicago Center
Mon 08:38:40 AM 42.5203 -90.1286 91° East 377 434 19,000 -195 Level Chicago Center
Mon 08:39:41 AM 42.5200 -89.9869 90° East 377 434 18,600 -488 Descending Chicago Center
Mon 08:40:43 AM 42.5175 -89.8389 91° East 380 437 18,000 -244 Descending Chicago Center
Mon 08:41:44 AM 42.5161 -89.7022 91° East 367 422 18,100 -293 Climbing Chicago Center
Mon 08:42:46 AM 42.5136 -89.5669 91° East 362 417 17,400 -537 Descending Chicago Center
Mon 08:43:47 AM 42.5117 -89.4031 91° East 364 419 17,000 -683 Descending Chicago Center
Mon 08:44:49 AM 42.5094 -89.2592 91° East 388 447 16,000 -1,220 Descending Chicago Center
Mon 08:45:50 AM 42.5058 -89.1053 92° East 408 470 14,500 -976 Descending Chicago Center
Mon 08:46:52 AM 42.5061 -88.9589 90° East 395 455 14,000 -780 Descending Chicago Center
Mon 08:47:53 AM 42.4742 -88.8208 107° East 394 453 12,900 -1,415 Descending Chicago Center
Mon 08:48:55 AM 42.4342 -88.6950 113° Southeast 370 426 11,100 -927 Descending Chicago Center
Mon 08:49:56 AM 42.3964 -88.5744 113° Southeast 355 409 11,000 -49 Descending Chicago Center
Mon 08:50:58 AM 42.3517 -88.4244 112° Southeast 358 412 11,000 -48 Level Chicago Center
Mon 08:52:00 AM 42.2950 -88.3114 124° Southeast 370 426 10,900 -585 Descending Chicago Center
Mon 08:53:01 AM 42.2408 -88.2256 130° Southeast 302 348 9,800 -1,415 Descending Chicago Center
Mon 08:54:03 AM 42.1878 -88.1375 129° Southeast 285 328 8,000 -1,366 Descending Chicago Center
Mon 08:55:04 AM 42.1300 -88.0736 141° Southeast 273 314 7,000 -488 Descending Chicago Center
Mon 08:56:06 AM 42.0892 -87.9964 125° Southeast 265 305 7,000  Level Chicago Center
Mon 08:57:07 AM 42.0894 -87.8922 90° East 260 299 7,000  Level Chicago Center
Mon 08:58:09 AM 42.0897 -87.7969 90° East 255 293 7,000  Level Chicago Center
Mon 08:59:10 AM 42.0908 -87.7144 89° East 226 260 7,000  Level Chicago Center
Mon 09:00:12 AM 42.0897 -87.6331 91° East 218 251 7,000 -537 Level Chicago Center
Mon 09:01:13 AM 42.0903 -87.5619 89° East 180 207 5,900 -1,073 Descending Chicago Center
Mon 09:02:15 AM 42.0900 -87.4975 90° East 174 200 4,800 -927 Descending Chicago Center
Mon 09:03:16 AM 42.0911 -87.4342 89° East 170 196 4,000 -390 Descending Chicago Center
Mon 09:04:18 AM 42.0392 -87.4183 167° South 185 213 4,000  Level Chicago Center
Mon 09:05:20 AM 42.0081 -87.4567 222° Southwest 181 208 4,000  Level Chicago Center
Mon 09:06:21 AM 42.0017 -87.5200 262° West 172 198 4,000  Level Chicago Center
Mon 09:07:23 AM 42.0017 -87.5906 270° West 176 203 4,000  Level Chicago Center
Mon 09:08:25 AM 42.0022 -87.6592 271° West 183 211 4,000 -293 Level Chicago Center
Mon 09:09:26 AM 42.0019 -87.7339 270° West 186 214 3,400 -823 Descending Chicago Center
Mon 09:10:29 AM 42.0000 -87.8000 268° West 181 208 2,300 -976 Descending Chicago TRACON
Mon 09:11:29 AM 42.0000 -87.8667 270° West 145 167 1,400 -900 Descending Chicago TRACON

Login

Don't have an account? Register now (free) for customized features, flight alerts, and more!